createdAt,value
2022-11-25T00:02:43.768Z,100806.47
2022-11-25T00:05:45.961Z,100785.75
2022-11-25T00:08:50.850Z,100806.81
2022-11-25T00:11:53.072Z,100808.31
2022-11-25T00:14:55.167Z,100808.66
2022-11-25T00:17:59.167Z,100839.66
2022-11-25T00:21:07.048Z,100836.44
2022-11-25T00:24:11.967Z,100802.94
2022-11-25T00:27:15.090Z,100826.34
2022-11-25T00:30:21.756Z,100819.78
2022-11-25T00:33:24.627Z,100823.31
2022-11-25T00:36:30.672Z,100831.06
2022-11-25T00:39:34.343Z,100831.41
2022-11-25T00:42:57.833Z,100835.09
2022-11-25T00:46:00.490Z,100815.75
2022-11-25T00:49:05.702Z,100828.88
2022-11-25T00:52:09.724Z,100839.66
2022-11-25T00:55:12.291Z,100838.13
2022-11-25T00:58:14.974Z,100829.88
2022-11-25T01:01:18.372Z,100846.03
2022-11-25T01:04:22.345Z,100851.94
2022-11-25T01:07:27.576Z,100845.06
2022-11-25T01:10:31.206Z,100834.78
2022-11-25T01:13:40.405Z,100847.91
2022-11-25T01:16:43.867Z,100846.22
2022-11-25T01:19:46.358Z,100835.59
2022-11-25T01:22:49.074Z,100827.88
2022-11-25T01:25:51.492Z,100826.53
2022-11-25T01:28:57.038Z,100835.44
2022-11-25T01:32:03.750Z,100854.50
2022-11-25T01:35:07.973Z,100861.06
2022-11-25T01:38:11.754Z,100830.22
2022-11-25T01:41:15.874Z,100855.84
2022-11-25T01:44:19.045Z,100860.22
2022-11-25T01:47:24.721Z,100844.53
2022-11-25T01:50:28.851Z,100849.25
2022-11-25T01:53:33.731Z,100845.72
2022-11-25T01:56:43.526Z,100859.03
2022-11-25T01:59:53.720Z,100868.63
2022-11-25T02:02:58.337Z,100854.16
2022-11-25T02:06:15.423Z,100846.22
2022-11-25T02:12:38.821Z,100877.06
2022-11-25T02:15:41.753Z,100849.94
2022-11-25T02:18:43.936Z,100858.19
2022-11-25T02:21:50.506Z,100892.91
2022-11-25T02:25:05.069Z,100868.28
2022-11-25T02:28:15.569Z,100894.44
2022-11-25T02:31:24.010Z,100890.53
2022-11-25T02:34:26.513Z,100868.78
2022-11-25T02:37:29.284Z,100900.13
2022-11-25T02:40:32.844Z,100883.78
2022-11-25T02:43:35.891Z,100879.22
2022-11-25T02:46:38.340Z,100884.13
2022-11-25T02:49:44.659Z,100885.16
2022-11-25T02:52:46.860Z,100880.41
2022-11-25T02:55:51.234Z,100890.34
2022-11-25T02:58:53.770Z,100888.84
2022-11-25T03:01:55.943Z,100908.72
2022-11-25T03:05:01.391Z,100921.88
2022-11-25T03:08:03.838Z,100910.38
2022-11-25T03:11:07.439Z,100919.81
2022-11-25T03:14:11.367Z,100931.44
2022-11-25T03:17:15.782Z,100943.91
2022-11-25T03:20:18.411Z,100936.66
2022-11-25T03:23:23.243Z,100943.69
2022-11-25T03:26:28.760Z,100942.66
2022-11-25T03:29:32.568Z,100950.81
2022-11-25T03:32:35.863Z,100937.63
2022-11-25T03:35:40.837Z,100947.59
2022-11-25T03:38:44.020Z,100936.66
2022-11-25T03:41:46.272Z,100953.69
2022-11-25T03:44:49.896Z,100933.47
2022-11-25T03:47:54.419Z,100936.00
2022-11-25T03:50:57.639Z,100909.47
2022-11-25T03:54:01.470Z,100924.81
2022-11-25T03:57:05.833Z,100945.09
2022-11-25T04:00:09.946Z,100953.19
2022-11-25T04:03:20.733Z,100941.69
2022-11-25T04:06:24.303Z,100967.13
2022-11-25T04:09:28.801Z,100968.91
2022-11-25T04:12:49.431Z,100980.94
2022-11-25T04:15:55.779Z,100988.78
2022-11-25T04:18:57.898Z,100982.53
2022-11-25T04:22:01.704Z,100993.59
2022-11-25T04:25:07.417Z,100989.03
2022-11-25T04:28:10.597Z,100980.25
2022-11-25T04:31:13.038Z,101004.69
2022-11-25T04:34:17.966Z,100994.84
2022-11-25T04:37:22.954Z,100996.09
2022-11-25T04:40:25.628Z,100999.63
2022-11-25T04:43:38.067Z,101015.47
2022-11-25T04:46:47.065Z,101000.53
2022-11-25T04:49:49.890Z,101000.47
2022-11-25T04:52:55.804Z,100996.81
2022-11-25T04:56:00.148Z,101012.66
2022-11-25T04:59:24.436Z,101011.25
2022-11-25T05:02:29.242Z,101034.47
2022-11-25T05:05:43.112Z,101022.63
2022-11-25T05:08:49.047Z,101029.59
2022-11-25T05:11:51.149Z,101007.84
2022-11-25T05:14:54.271Z,101042.66
2022-11-25T05:17:58.087Z,101030.59
2022-11-25T05:21:16.242Z,101049.69
2022-11-25T05:24:19.657Z,101051.19
2022-11-25T05:27:25.639Z,101066.03
2022-11-25T05:30:27.769Z,101050.31
2022-11-25T05:33:30.461Z,101057.28
2022-11-25T05:36:33.691Z,101061.34
2022-11-25T05:39:35.983Z,101070.00
2022-11-25T05:43:04.208Z,101071.91
2022-11-25T05:46:10.984Z,101064.78
2022-11-25T05:49:19.914Z,101068.94
2022-11-25T05:52:22.869Z,101076.91
2022-11-25T05:55:31.321Z,101080.88
2022-11-25T05:58:34.918Z,101082.06
2022-11-25T06:01:39.033Z,101077.75
2022-11-25T06:04:41.182Z,101098.53
2022-11-25T06:07:44.522Z,101097.78
2022-11-25T06:10:47.309Z,101112.69
2022-11-25T06:13:50.239Z,101118.19
2022-11-25T06:16:54.740Z,101115.81
2022-11-25T06:20:06.603Z,101120.28
2022-11-25T06:23:10.757Z,101118.78
2022-11-25T06:26:20.631Z,101129.13
2022-11-25T06:29:25.597Z,101133.22
2022-11-25T06:32:27.871Z,101111.84
2022-11-25T06:35:37.074Z,101137.19
2022-11-25T06:38:40.259Z,101138.59
2022-11-25T06:41:42.308Z,101127.66
2022-11-25T06:44:49.721Z,101140.41
2022-11-25T06:47:53.881Z,101149.16
2022-11-25T06:50:57.882Z,101140.59
2022-11-25T06:54:00.036Z,101146.59
2022-11-25T06:57:02.202Z,101131.44
2022-11-25T07:00:05.042Z,101159.47
2022-11-25T07:03:07.363Z,101135.09
2022-11-25T07:06:18.222Z,101134.59
2022-11-25T07:09:20.361Z,101144.22
2022-11-25T07:12:22.402Z,101163.78
2022-11-25T07:15:24.399Z,101161.69
2022-11-25T07:18:26.806Z,101153.00
2022-11-25T07:21:32.720Z,101171.03
2022-11-25T07:24:35.603Z,101177.66
2022-11-25T07:27:38.674Z,101174.16
2022-11-25T07:31:22.242Z,101161.44
2022-11-25T07:34:10.097Z,101173.91
2022-11-25T07:37:13.338Z,101195.03
2022-11-25T07:40:15.728Z,101174.81
2022-11-25T07:43:17.789Z,101195.75
2022-11-25T07:46:27.245Z,101200.00
2022-11-25T07:49:29.786Z,101194.78
2022-11-25T07:52:31.935Z,101188.22
2022-11-25T07:55:33.915Z,101200.41
2022-11-25T07:58:38.411Z,101194.00
2022-11-25T08:01:45.378Z,101210.88
2022-11-25T08:04:47.605Z,101208.16
2022-11-25T08:07:50.358Z,101207.50
2022-11-25T08:10:52.682Z,101202.69
2022-11-25T08:13:55.408Z,101216.50
2022-11-25T08:16:57.462Z,101218.69
2022-11-25T08:19:59.925Z,101227.28
2022-11-25T08:23:02.626Z,101214.81
2022-11-25T08:26:13.932Z,101204.63
2022-11-25T08:29:18.824Z,101221.72
2022-11-25T08:32:21.047Z,101229.16
2022-11-25T08:35:23.917Z,101228.13
2022-11-25T08:38:27.591Z,101226.25
2022-11-25T08:41:34.768Z,101214.25
2022-11-25T08:44:37.938Z,101229.41
2022-11-25T08:47:40.839Z,101231.75
2022-11-25T08:50:48.240Z,101240.81
2022-11-25T08:53:53.616Z,101233.22
2022-11-25T08:56:55.980Z,101243.41
2022-11-25T08:59:58.287Z,101245.31
2022-11-25T09:03:03.436Z,101234.34
2022-11-25T09:06:08.586Z,101215.91
2022-11-25T09:09:11.946Z,101244.09
2022-11-25T09:12:14.637Z,101236.00
2022-11-25T09:15:16.973Z,101245.56
2022-11-25T09:18:20.765Z,101237.97
2022-11-25T09:21:25.407Z,101244.13
2022-11-25T09:24:27.872Z,101238.72
2022-11-25T09:27:31.818Z,101220.84
2022-11-25T09:30:33.981Z,101230.28
2022-11-25T09:33:36.366Z,101231.13
2022-11-25T09:36:39.260Z,101245.00
2022-11-25T09:39:42.909Z,101238.13
2022-11-25T09:43:51.880Z,101243.91
2022-11-25T09:47:47.042Z,101244.09
2022-11-25T09:51:18.405Z,101250.34
2022-11-25T09:54:27.899Z,101238.38
2022-11-25T09:57:35.993Z,101230.41
2022-11-25T10:00:42.072Z,101249.81
2022-11-25T10:03:54.118Z,101223.34
2022-11-25T10:07:02.017Z,101254.94
2022-11-25T10:10:10.609Z,101250.19
2022-11-25T10:13:21.397Z,101247.81
2022-11-25T10:16:51.419Z,101257.09
2022-11-25T10:20:24.087Z,101246.31
2022-11-25T10:23:35.530Z,101244.13
2022-11-25T10:26:48.979Z,101251.91
2022-11-25T10:30:02.140Z,101261.50
2022-11-25T10:33:25.543Z,101261.19
2022-11-25T10:36:36.124Z,101250.34
2022-11-25T10:39:38.729Z,101253.13
2022-11-25T10:42:41.017Z,101224.78
2022-11-25T10:46:05.738Z,101269.44
2022-11-25T10:49:16.020Z,101269.75
2022-11-25T10:52:23.391Z,101279.72
2022-11-25T10:55:33.534Z,101269.44
2022-11-25T10:58:38.320Z,101270.63
2022-11-25T11:01:40.858Z,101269.38
2022-11-25T11:04:52.980Z,101271.00
2022-11-25T11:08:23.207Z,101287.94
2022-11-25T11:11:25.841Z,101275.34
2022-11-25T11:14:30.114Z,101288.97
2022-11-25T11:17:37.289Z,101290.69
2022-11-25T11:20:46.887Z,101275.03
2022-11-25T11:23:55.289Z,101288.53
2022-11-25T11:27:17.573Z,101292.06
2022-11-25T11:30:25.869Z,101282.94
2022-11-25T11:33:37.044Z,101287.31
2022-11-25T11:37:08.579Z,101301.03
2022-11-25T11:40:19.713Z,101303.75
2022-11-25T11:43:34.722Z,101296.66
2022-11-25T11:46:57.273Z,101304.91
2022-11-25T11:50:23.517Z,101303.75
2022-11-25T11:53:48.474Z,101300.53
2022-11-25T11:57:00.532Z,101300.53
2022-11-25T12:00:14.149Z,101300.34
2022-11-25T12:03:25.882Z,101299.19
2022-11-25T12:06:32.202Z,101307.28
2022-11-25T12:10:11.925Z,101313.22
2022-11-25T12:13:19.907Z,101319.97
2022-11-25T12:16:29.763Z,101314.22
2022-11-25T12:19:50.487Z,101319.81
2022-11-25T12:22:57.942Z,101319.59
2022-11-25T12:26:06.572Z,101330.44
2022-11-25T12:29:29.517Z,101333.28
2022-11-25T12:33:11.898Z,101338.81
2022-11-25T12:36:21.170Z,101332.94
2022-11-25T12:39:39.037Z,101320.41
2022-11-25T12:42:46.694Z,101332.91
2022-11-25T12:46:05.976Z,101321.59
2022-11-25T12:49:21.592Z,101345.25
2022-11-25T12:52:52.020Z,101345.56
2022-11-25T12:56:00.653Z,101319.06
2022-11-25T12:59:43.576Z,101349.63
2022-11-25T13:03:12.307Z,101343.88
2022-11-25T13:06:44.351Z,101329.22
2022-11-25T13:10:01.607Z,101353.41
2022-11-25T13:13:18.943Z,101351.63
2022-11-25T13:16:22.715Z,101341.00
2022-11-25T13:19:25.565Z,101348.78
2022-11-25T13:22:29.869Z,101356.66
2022-11-25T13:25:33.107Z,101339.06
2022-11-25T13:28:39.626Z,101353.66
2022-11-25T13:32:05.353Z,101358.88
2022-11-25T13:35:22.645Z,101367.47
2022-11-25T13:38:30.837Z,101365.28
2022-11-25T13:41:39.471Z,101363.75
2022-11-25T13:44:59.255Z,101372.53
2022-11-25T13:48:37.357Z,101368.00
2022-11-25T13:51:49.568Z,101369.81
2022-11-25T13:54:56.714Z,101368.66
2022-11-25T13:58:17.141Z,101362.88
2022-11-25T14:01:29.994Z,101378.69
2022-11-25T14:05:09.753Z,101380.22
2022-11-25T14:08:45.073Z,101359.59
2022-11-25T14:12:25.021Z,101369.59
2022-11-25T14:15:35.764Z,101368.28
2022-11-25T14:19:43.760Z,101377.06
2022-11-25T14:22:33.337Z,101381.38
2022-11-25T14:25:52.140Z,101389.75
2022-11-25T14:29:19.899Z,101370.66
2022-11-25T14:32:30.175Z,101387.34
2022-11-25T14:35:45.255Z,101395.34
2022-11-25T14:38:54.758Z,101395.81
2022-11-25T14:41:59.744Z,101386.13
2022-11-25T14:45:03.366Z,101391.53
2022-11-25T14:48:22.293Z,101407.34
2022-11-25T14:51:34.347Z,101396.56
2022-11-25T14:54:42.621Z,101407.53
2022-11-25T14:57:45.676Z,101402.31
2022-11-25T15:00:53.579Z,101397.81
2022-11-25T15:04:22.429Z,101409.84
2022-11-25T15:07:30.942Z,101426.34
2022-11-25T15:10:42.477Z,101426.84
2022-11-25T15:13:54.416Z,101435.72
2022-11-25T15:16:57.993Z,101425.63
2022-11-25T15:20:09.923Z,101381.13
2022-11-25T15:23:19.231Z,101426.69
2022-11-25T15:26:27.475Z,101435.00
2022-11-25T15:29:31.542Z,101430.50
2022-11-25T15:32:37.759Z,101422.44
2022-11-25T15:35:41.506Z,101426.63
2022-11-25T15:38:46.463Z,101443.94
2022-11-25T15:41:54.953Z,101461.84
2022-11-25T15:45:07.191Z,101452.47
2022-11-25T15:48:29.230Z,101464.75
2022-11-25T15:51:45.424Z,101471.53
2022-11-25T15:54:52.561Z,101462.84
2022-11-25T15:57:56.604Z,101472.13
2022-11-25T16:01:06.091Z,101472.16
2022-11-25T16:04:23.060Z,101472.84
2022-11-25T16:07:34.071Z,101473.47
2022-11-25T16:10:42.016Z,101485.00
2022-11-25T16:13:45.253Z,101476.72
2022-11-25T16:16:48.351Z,101456.19
2022-11-25T16:19:50.468Z,101474.53
2022-11-25T16:22:52.927Z,101474.56
2022-11-25T16:26:01.849Z,101473.88
2022-11-25T16:29:16.027Z,101468.03
2022-11-25T16:32:22.064Z,101481.06
2022-11-25T16:35:27.194Z,101488.38
2022-11-25T16:38:29.363Z,101492.75
2022-11-25T16:41:35.263Z,101488.22
2022-11-25T16:44:37.602Z,101474.34
2022-11-25T16:47:53.688Z,101496.16
2022-11-25T16:50:56.749Z,101511.91
2022-11-25T16:54:04.182Z,101499.03
2022-11-25T16:57:07.862Z,101483.81
2022-11-25T17:00:17.231Z,101503.41
2022-11-25T17:03:20.441Z,101512.91
2022-11-25T17:06:25.464Z,101493.81
2022-11-25T17:09:27.911Z,101474.00
2022-11-25T17:12:33.230Z,101500.72
2022-11-25T17:15:39.180Z,101505.28
2022-11-25T17:18:41.316Z,101514.56
2022-11-25T17:21:45.904Z,101499.19
2022-11-25T17:24:48.821Z,101503.59
2022-11-25T17:27:51.665Z,101511.50
2022-11-25T17:30:56.336Z,101493.75
2022-11-25T17:33:58.416Z,101506.75
2022-11-25T17:37:00.452Z,101518.31
2022-11-25T17:40:02.516Z,101513.06
2022-11-25T17:43:05.846Z,101510.03
2022-11-25T17:46:16.178Z,101521.88
2022-11-25T17:49:18.675Z,101519.31
2022-11-25T17:52:21.005Z,101509.34
2022-11-25T17:55:23.158Z,101533.38
2022-11-25T17:58:25.371Z,101515.59
2022-11-25T18:01:27.605Z,101533.06
2022-11-25T18:04:34.873Z,101536.75
2022-11-25T18:07:37.308Z,101533.38
2022-11-25T18:10:42.503Z,101512.19
2022-11-25T18:13:50.943Z,101527.50
2022-11-25T18:16:55.163Z,101542.38
2022-11-25T18:19:57.551Z,101542.81
2022-11-25T18:23:00.942Z,101547.50
2022-11-25T18:26:04.160Z,101539.56
2022-11-25T18:29:08.101Z,101532.81
2022-11-25T18:32:11.168Z,101547.38
2022-11-25T18:35:16.376Z,101555.38
2022-11-25T18:38:18.442Z,101548.63
2022-11-25T18:41:22.998Z,101541.25
2022-11-25T18:44:29.142Z,101556.09
2022-11-25T18:47:31.207Z,101551.28
2022-11-25T18:50:33.234Z,101553.47
2022-11-25T18:53:35.377Z,101565.47
2022-11-25T18:56:38.974Z,101557.25
2022-11-25T18:59:44.866Z,101582.75
2022-11-25T19:02:47.464Z,101589.31
2022-11-25T19:05:54.368Z,101565.78
2022-11-25T19:08:56.912Z,101591.44
2022-11-25T19:11:59.237Z,101579.72
2022-11-25T19:15:01.733Z,101589.78
2022-11-25T19:18:06.594Z,101585.97
2022-11-25T19:21:21.312Z,101587.31
2022-11-25T19:24:23.334Z,101578.38
2022-11-25T19:27:27.238Z,101574.84
2022-11-25T19:30:32.893Z,101575.00
2022-11-25T19:33:37.685Z,101588.56
2022-11-25T19:36:39.700Z,101596.34
2022-11-25T19:39:41.901Z,101594.47
2022-11-25T19:42:46.687Z,101586.00
2022-11-25T19:45:50.265Z,101593.97
2022-11-25T19:48:55.041Z,101571.09
2022-11-25T19:51:59.295Z,101589.75
2022-11-25T19:55:02.810Z,101593.78
2022-11-25T19:58:04.905Z,101596.34
2022-11-25T20:01:16.218Z,101604.63
2022-11-25T20:04:22.613Z,101610.19
2022-11-25T20:07:27.241Z,101610.53
2022-11-25T20:10:32.259Z,101618.66
2022-11-25T20:13:34.795Z,101604.06
2022-11-25T20:16:40.270Z,101616.28
2022-11-25T20:19:42.550Z,101618.63
2022-11-25T20:23:10.594Z,101621.81
2022-11-25T20:26:23.135Z,101631.94
2022-11-25T20:29:30.432Z,101622.28
2022-11-25T20:32:34.282Z,101621.94
2022-11-25T20:35:36.481Z,101608.44
2022-11-25T20:38:44.500Z,101615.97
2022-11-25T20:41:51.895Z,101616.63
2022-11-25T20:44:57.523Z,101626.78
2022-11-25T20:48:00.024Z,101628.28
2022-11-25T20:51:03.519Z,101631.97
2022-11-25T20:54:11.689Z,101624.53
2022-11-25T20:57:13.789Z,101631.41
2022-11-25T21:00:20.547Z,101646.63
2022-11-25T21:03:22.952Z,101644.41
2022-11-25T21:06:30.164Z,101634.00
2022-11-25T21:09:34.812Z,101641.06
2022-11-25T21:12:36.816Z,101642.72
2022-11-25T21:15:38.922Z,101635.59
2022-11-25T21:18:41.888Z,101625.97
2022-11-25T21:21:49.707Z,101632.69
2022-11-25T21:24:51.774Z,101640.91
2022-11-25T21:27:54.237Z,101648.41
2022-11-25T21:30:56.231Z,101652.78
2022-11-25T21:34:00.405Z,101633.03
2022-11-25T21:37:03.202Z,101645.25
2022-11-25T21:40:06.217Z,101661.25
2022-11-25T21:43:21.499Z,101651.25
2022-11-25T21:46:25.863Z,101637.50
2022-11-25T21:49:28.014Z,101655.03
2022-11-25T21:52:30.187Z,101653.88
2022-11-25T21:55:33.777Z,101650.97
2022-11-25T21:58:36.717Z,101660.66
2022-11-25T22:01:38.943Z,101638.66
2022-11-25T22:04:41.018Z,101659.47
2022-11-25T22:07:43.537Z,101665.53
2022-11-25T22:10:49.439Z,101660.06
2022-11-25T22:13:51.615Z,101649.69
2022-11-25T22:16:53.714Z,101665.78
2022-11-25T22:19:56.780Z,101669.38
2022-11-25T22:22:59.084Z,101660.47
2022-11-25T22:26:01.128Z,101685.09
2022-11-25T22:29:04.079Z,101692.19
2022-11-25T22:32:12.433Z,101675.13
2022-11-25T22:35:18.038Z,101680.06
2022-11-25T22:38:21.059Z,101677.06
2022-11-25T22:41:23.164Z,101692.88
2022-11-25T22:44:34.667Z,101682.16
2022-11-25T22:47:41.568Z,101673.56
2022-11-25T22:50:45.843Z,101686.09
2022-11-25T22:53:48.044Z,101685.91
2022-11-25T22:56:50.541Z,101690.84
2022-11-25T22:59:52.618Z,101693.38
2022-11-25T23:02:57.047Z,101685.00
2022-11-25T23:05:59.185Z,101697.78
2022-11-25T23:09:03.206Z,101683.38
2022-11-25T23:12:06.263Z,101698.78
2022-11-25T23:15:13.157Z,101708.78
2022-11-25T23:18:20.872Z,101701.84
2022-11-25T23:21:25.663Z,101693.59
2022-11-25T23:24:27.830Z,101674.34
2022-11-25T23:27:29.928Z,101710.69
2022-11-25T23:30:32.557Z,101688.06
2022-11-25T23:33:40.544Z,101705.19
2022-11-25T23:36:45.441Z,101706.81
2022-11-25T23:39:52.247Z,101713.88
2022-11-25T23:42:55.628Z,101703.84
2022-11-25T23:45:57.873Z,101703.28
2022-11-25T23:49:03.144Z,101714.75
2022-11-25T23:52:08.220Z,101727.66
2022-11-25T23:55:15.557Z,101727.38
2022-11-25T23:58:19.717Z,101724.28
